createdAt,value
2017-08-07T00:00:24.818Z,101701.18
2017-08-07T00:02:52.483Z,101698.94
2017-08-07T00:05:20.105Z,101702.63
2017-08-07T00:07:47.726Z,101700.84
2017-08-07T00:10:15.346Z,101685.94
2017-08-07T00:12:42.936Z,101687.80
2017-08-07T00:15:10.556Z,101689.73
2017-08-07T00:17:38.150Z,101687.58
2017-08-07T00:20:05.794Z,101687.77
2017-08-07T00:22:33.399Z,101686.14
2017-08-07T00:25:01.007Z,101682.51
2017-08-07T00:27:28.640Z,101676.89
2017-08-07T00:29:56.238Z,101676.36
2017-08-07T00:32:23.868Z,101676.42
2017-08-07T00:34:51.467Z,101677.38
2017-08-07T00:37:19.099Z,101673.58
2017-08-07T00:39:46.762Z,101671.93
2017-08-07T00:42:14.394Z,101667.88
2017-08-07T00:44:41.993Z,101665.89
2017-08-07T00:47:09.637Z,101664.11
2017-08-07T00:49:37.238Z,101667.18
2017-08-07T00:52:04.935Z,101664.44
2017-08-07T00:54:32.543Z,101668.30
2017-08-07T00:57:00.163Z,101665.00
2017-08-07T00:59:27.890Z,101665.00
2017-08-07T01:01:55.523Z,101663.73
2017-08-07T01:04:23.122Z,101660.87
2017-08-07T01:06:50.830Z,101656.75
2017-08-07T01:09:18.414Z,101655.92
2017-08-07T01:11:46.139Z,101653.00
2017-08-07T01:14:13.743Z,101648.37
2017-08-07T01:16:41.380Z,101646.52
2017-08-07T01:19:08.990Z,101642.77
2017-08-07T01:21:36.681Z,101642.98
2017-08-07T01:24:04.266Z,101639.27
2017-08-07T01:26:32.031Z,101634.64
2017-08-07T01:28:59.658Z,101634.41
2017-08-07T01:31:27.264Z,101633.44
2017-08-07T01:33:54.887Z,101632.53
2017-08-07T01:36:22.503Z,101632.97
2017-08-07T01:38:50.128Z,101625.67
2017-08-07T01:41:17.785Z,101624.89
2017-08-07T01:43:45.448Z,101626.46
2017-08-07T01:46:13.039Z,101629.88
2017-08-07T01:48:40.672Z,101626.69
2017-08-07T01:51:08.343Z,101618.18
2017-08-07T01:53:35.993Z,101615.63
2017-08-07T01:56:03.594Z,101622.16
2017-08-07T01:58:31.238Z,101627.70
2017-08-07T02:00:58.885Z,101626.34
2017-08-07T02:03:26.519Z,101624.95
2017-08-07T02:05:54.118Z,101626.58
2017-08-07T02:08:21.755Z,101627.55
2017-08-07T02:10:49.387Z,101619.72
2017-08-07T02:13:17.032Z,101621.75
2017-08-07T02:15:44.646Z,101624.73
2017-08-07T02:18:12.226Z,101619.60
2017-08-07T02:20:39.834Z,101620.01
2017-08-07T02:23:07.423Z,101616.32
2017-08-07T02:25:35.094Z,101622.80
2017-08-07T02:28:02.786Z,101619.67
2017-08-07T02:30:30.463Z,101616.83
2017-08-07T02:32:58.068Z,101610.75
2017-08-07T02:35:25.700Z,101607.89
2017-08-07T02:37:53.311Z,101610.05
2017-08-07T02:40:20.917Z,101611.84
2017-08-07T02:42:48.576Z,101614.26
2017-08-07T02:45:16.222Z,101608.34
2017-08-07T02:47:43.838Z,101609.42
2017-08-07T02:50:11.446Z,101608.77
2017-08-07T02:52:39.102Z,101608.79
2017-08-07T02:55:06.718Z,101610.84
2017-08-07T02:57:34.474Z,101606.94
2017-08-07T03:00:02.067Z,101605.86
2017-08-07T03:02:29.732Z,101603.25
2017-08-07T03:04:57.339Z,101603.72
2017-08-07T03:07:25.034Z,101601.02
2017-08-07T03:09:52.635Z,101603.16
2017-08-07T03:12:20.266Z,101599.13
2017-08-07T03:14:47.871Z,101600.80
2017-08-07T03:17:15.554Z,101602.81
2017-08-07T03:19:43.179Z,101596.05
2017-08-07T03:22:10.767Z,101595.23
2017-08-07T03:24:38.405Z,101589.44
2017-08-07T03:27:06.004Z,101597.55
2017-08-07T03:29:33.651Z,101593.36
2017-08-07T03:32:01.273Z,101594.45
2017-08-07T03:34:28.906Z,101589.44
2017-08-07T03:36:56.539Z,101590.13
2017-08-07T03:39:24.188Z,101592.69
2017-08-07T03:41:51.811Z,101598.52
2017-08-07T03:44:19.407Z,101596.20
2017-08-07T03:46:47.105Z,101595.26
2017-08-07T03:49:14.711Z,101594.84
2017-08-07T03:51:42.327Z,101589.85
2017-08-07T03:54:09.932Z,101581.75
2017-08-07T03:56:37.723Z,101586.35
2017-08-07T03:59:05.354Z,101587.67
2017-08-07T04:01:33.006Z,101588.78
2017-08-07T04:04:00.610Z,101582.99
2017-08-07T04:06:28.235Z,101582.03
2017-08-07T04:08:55.908Z,101582.71
2017-08-07T04:11:23.530Z,101580.83
2017-08-07T04:13:51.133Z,101574.88
2017-08-07T04:16:18.842Z,101578.54
2017-08-07T04:18:46.799Z,101577.84
2017-08-07T04:21:14.424Z,101579.09
2017-08-07T04:23:42.033Z,101583.78
2017-08-07T04:26:09.711Z,101577.98
2017-08-07T04:28:37.383Z,101586.73
2017-08-07T04:31:05.005Z,101583.21
2017-08-07T04:33:32.628Z,101586.64
2017-08-07T04:36:00.293Z,101581.62
2017-08-07T04:38:27.905Z,101577.85
2017-08-07T04:40:55.560Z,101582.81
2017-08-07T04:43:23.191Z,101578.36
2017-08-07T04:45:50.783Z,101575.80
2017-08-07T04:48:18.402Z,101575.14
2017-08-07T04:50:46.011Z,101576.55
2017-08-07T04:53:13.641Z,101572.02
2017-08-07T04:55:41.274Z,101573.36
2017-08-07T04:58:08.939Z,101572.56
2017-08-07T05:00:36.534Z,101573.51
2017-08-07T05:03:04.246Z,101568.53
2017-08-07T05:05:31.851Z,101567.73
2017-08-07T05:07:59.447Z,101562.07
2017-08-07T05:10:27.063Z,101563.67
2017-08-07T05:12:54.670Z,101566.94
2017-08-07T05:15:22.287Z,101565.19
2017-08-07T05:17:49.937Z,101559.75
2017-08-07T05:20:17.566Z,101563.53
2017-08-07T05:22:45.174Z,101555.30
2017-08-07T05:25:12.823Z,101556.09
2017-08-07T05:27:40.464Z,101564.45
2017-08-07T05:30:08.111Z,101559.41
2017-08-07T05:32:35.727Z,101552.46
2017-08-07T05:35:03.332Z,101556.06
2017-08-07T05:37:30.958Z,101556.98
2017-08-07T05:39:58.574Z,101551.58
2017-08-07T05:42:26.219Z,101555.36
2017-08-07T05:44:53.835Z,101557.23
2017-08-07T05:47:21.478Z,101556.53
2017-08-07T05:49:49.088Z,101556.27
2017-08-07T05:52:16.726Z,101552.72
2017-08-07T05:54:44.330Z,101554.64
2017-08-07T05:57:11.974Z,101552.88
2017-08-07T05:59:39.584Z,101549.89
2017-08-07T06:02:07.274Z,101548.95
2017-08-07T06:04:34.891Z,101546.83
2017-08-07T06:07:02.657Z,101544.55
2017-08-07T06:09:30.318Z,101545.48
2017-08-07T06:11:57.968Z,101544.11
2017-08-07T06:14:25.663Z,101545.70
2017-08-07T06:16:53.323Z,101551.38
2017-08-07T06:19:20.944Z,101551.08
2017-08-07T06:21:48.587Z,101548.73
2017-08-07T06:24:16.190Z,101549.66
2017-08-07T06:26:43.846Z,101547.07
2017-08-07T06:29:11.590Z,101550.95
2017-08-07T06:31:39.301Z,101553.45
2017-08-07T06:34:06.898Z,101547.75
2017-08-07T06:36:34.502Z,101546.50
2017-08-07T06:39:02.159Z,101549.09
2017-08-07T06:41:29.751Z,101544.07
2017-08-07T06:43:57.383Z,101548.35
2017-08-07T06:46:25.010Z,101548.19
2017-08-07T06:48:52.683Z,101540.32
2017-08-07T06:51:20.308Z,101539.91
2017-08-07T06:53:47.994Z,101523.94
2017-08-07T06:56:15.606Z,101529.81
2017-08-07T06:58:43.211Z,101520.30
2017-08-07T07:01:10.862Z,101518.48
2017-08-07T07:03:38.531Z,101532.02
2017-08-07T07:06:06.159Z,101522.48
2017-08-07T07:08:33.775Z,101527.66
2017-08-07T07:11:01.403Z,101526.59
2017-08-07T07:13:29.031Z,101524.06
2017-08-07T07:15:56.685Z,101527.39
2017-08-07T07:18:24.292Z,101522.98
2017-08-07T07:20:51.914Z,101524.80
2017-08-07T07:23:19.512Z,101521.11
2017-08-07T07:25:47.230Z,101522.44
2017-08-07T07:28:14.815Z,101522.22
2017-08-07T07:30:42.523Z,101520.94
2017-08-07T07:33:10.115Z,101518.05
2017-08-07T07:35:37.726Z,101522.11
2017-08-07T07:38:05.315Z,101519.81
2017-08-07T07:40:32.939Z,101512.26
2017-08-07T07:43:00.527Z,101517.55
2017-08-07T07:45:28.191Z,101512.02
2017-08-07T07:47:55.785Z,101510.61
2017-08-07T07:50:23.411Z,101511.41
2017-08-07T07:52:51.008Z,101511.58
2017-08-07T07:55:18.646Z,101503.88
2017-08-07T07:57:46.324Z,101505.11
2017-08-07T08:00:13.982Z,101502.06
2017-08-07T08:02:41.590Z,101506.41
2017-08-07T08:05:09.203Z,101499.67
2017-08-07T08:07:36.802Z,101503.33
2017-08-07T08:10:04.421Z,101502.88
2017-08-07T08:12:32.011Z,101503.68
2017-08-07T08:14:59.678Z,101497.72
2017-08-07T08:17:27.278Z,101494.82
2017-08-07T08:19:54.942Z,101485.28
2017-08-07T08:22:22.644Z,101481.58
2017-08-07T08:24:50.304Z,101482.41
2017-08-07T08:27:17.958Z,101479.50
2017-08-07T08:29:45.571Z,101483.41
2017-08-07T08:32:13.205Z,101483.63
2017-08-07T08:34:40.867Z,101479.74
2017-08-07T08:37:08.530Z,101479.25
2017-08-07T08:39:36.170Z,101473.26
2017-08-07T08:42:03.839Z,101476.00
2017-08-07T08:44:31.455Z,101476.98
2017-08-07T08:46:59.171Z,101475.20
2017-08-07T08:49:26.775Z,101476.23
2017-08-07T08:51:54.422Z,101476.09
2017-08-07T08:54:22.056Z,101474.33
2017-08-07T08:56:49.669Z,101476.98
2017-08-07T08:59:17.291Z,101473.91
2017-08-07T09:01:44.897Z,101473.34
2017-08-07T09:04:12.507Z,101474.42
2017-08-07T09:06:40.146Z,101464.25
2017-08-07T09:09:07.730Z,101464.28
2017-08-07T09:11:35.468Z,101465.27
2017-08-07T09:14:03.053Z,101469.83
2017-08-07T09:16:30.691Z,101467.13
2017-08-07T09:18:58.323Z,101466.69
2017-08-07T09:21:25.945Z,101462.93
2017-08-07T09:23:53.538Z,101458.05
2017-08-07T09:26:21.181Z,101459.08
2017-08-07T09:28:48.774Z,101458.44
2017-08-07T09:31:16.447Z,101457.13
2017-08-07T09:33:44.030Z,101445.00
2017-08-07T09:36:11.664Z,101442.09
2017-08-07T09:38:39.278Z,101449.89
2017-08-07T09:41:06.922Z,101446.81
2017-08-07T09:43:34.532Z,101442.59
2017-08-07T09:46:02.127Z,101440.72
2017-08-07T09:48:29.797Z,101441.95
2017-08-07T09:50:57.462Z,101449.92
2017-08-07T09:53:25.058Z,101449.08
2017-08-07T09:55:52.674Z,101447.73
2017-08-07T09:58:20.298Z,101433.43
2017-08-07T10:00:47.901Z,101432.47
2017-08-07T10:03:15.518Z,101423.01
2017-08-07T10:05:43.114Z,101423.27
2017-08-07T10:08:10.739Z,101422.39
2017-08-07T10:10:38.335Z,101421.02
2017-08-07T10:13:05.962Z,101419.66
2017-08-07T10:15:33.562Z,101408.20
2017-08-07T10:18:01.187Z,101413.34
2017-08-07T10:20:28.775Z,101401.90
2017-08-07T10:22:56.414Z,101404.05
2017-08-07T10:25:24.036Z,101410.39
2017-08-07T10:27:51.631Z,101401.37
2017-08-07T10:30:19.219Z,101396.16
2017-08-07T10:32:46.862Z,101393.80
2017-08-07T10:35:14.465Z,101393.45
2017-08-07T10:37:42.058Z,101391.02
2017-08-07T10:40:09.679Z,101395.19
2017-08-07T10:42:37.306Z,101396.11
2017-08-07T10:45:04.911Z,101383.75
2017-08-07T10:47:32.493Z,101386.63
2017-08-07T10:50:00.126Z,101387.00
2017-08-07T10:52:27.715Z,101381.53
2017-08-07T10:54:55.355Z,101379.03
2017-08-07T10:57:22.963Z,101373.64
2017-08-07T10:59:50.623Z,101368.75
2017-08-07T11:02:18.210Z,101361.22
2017-08-07T11:04:45.832Z,101361.77
2017-08-07T11:07:13.500Z,101362.48
2017-08-07T11:09:41.127Z,101353.98
2017-08-07T11:12:08.732Z,101359.66
2017-08-07T11:14:36.405Z,101353.98
2017-08-07T11:17:03.994Z,101350.25
2017-08-07T11:19:31.631Z,101349.52
2017-08-07T11:21:59.227Z,101347.36
2017-08-07T11:24:26.846Z,101341.16
2017-08-07T11:26:54.458Z,101337.20
2017-08-07T11:29:22.072Z,101332.25
2017-08-07T11:31:49.663Z,101328.05
2017-08-07T11:34:17.398Z,101326.22
2017-08-07T11:36:44.994Z,101324.30
2017-08-07T11:39:12.611Z,101319.13
2017-08-07T11:41:40.214Z,101311.83
2017-08-07T11:44:07.876Z,101316.25
2017-08-07T11:46:35.495Z,101309.30
2017-08-07T11:49:03.235Z,101312.67
2017-08-07T11:51:30.835Z,101312.62
2017-08-07T11:53:58.475Z,101303.86
2017-08-07T11:56:26.063Z,101304.15
2017-08-07T11:58:53.710Z,101305.41
2017-08-07T12:01:21.354Z,101309.41
2017-08-07T12:03:48.946Z,101303.59
2017-08-07T12:06:16.583Z,101293.69
2017-08-07T12:08:44.178Z,101298.06
2017-08-07T12:11:11.799Z,101298.94
2017-08-07T12:13:39.387Z,101290.94
2017-08-07T12:16:07.001Z,101285.28
2017-08-07T12:18:34.595Z,101291.03
2017-08-07T12:21:02.223Z,101285.98
2017-08-07T12:23:29.803Z,101279.78
2017-08-07T12:25:57.440Z,101276.58
2017-08-07T12:28:25.056Z,101275.33
2017-08-07T12:30:52.695Z,101277.54
2017-08-07T12:33:20.288Z,101276.31
2017-08-07T12:35:47.946Z,101266.34
2017-08-07T12:38:15.542Z,101268.78
2017-08-07T12:40:43.171Z,101264.25
2017-08-07T12:43:10.762Z,101267.62
2017-08-07T12:45:38.383Z,101257.68
2017-08-07T12:48:05.987Z,101249.90
2017-08-07T12:50:33.603Z,101254.95
2017-08-07T12:53:01.208Z,101246.02
2017-08-07T12:55:28.844Z,101250.13
2017-08-07T12:57:56.442Z,101251.27
2017-08-07T13:00:24.086Z,101244.52
2017-08-07T13:02:53.395Z,101243.72
2017-08-07T13:05:21.014Z,101245.55
2017-08-07T13:07:48.646Z,101236.41
2017-08-07T13:10:16.274Z,101233.83
2017-08-07T13:12:43.934Z,101230.14
2017-08-07T13:15:11.629Z,101231.05
2017-08-07T13:17:39.238Z,101230.44
2017-08-07T13:20:06.834Z,101228.51
2017-08-07T13:22:34.487Z,101223.03
2017-08-07T13:25:02.111Z,101217.72
2017-08-07T13:27:29.706Z,101216.39
2017-08-07T13:29:57.314Z,101219.61
2017-08-07T13:32:24.945Z,101213.84
2017-08-07T13:34:52.539Z,101220.25
2017-08-07T13:37:20.159Z,101206.23
2017-08-07T13:39:47.742Z,101206.33
2017-08-07T13:42:15.370Z,101207.50
2017-08-07T13:44:42.964Z,101203.22
2017-08-07T13:47:10.586Z,101201.87
2017-08-07T13:49:38.187Z,101190.77
2017-08-07T13:52:05.815Z,101192.14
2017-08-07T13:54:33.403Z,101196.48
2017-08-07T13:57:01.031Z,101192.77
2017-08-07T13:59:28.632Z,101195.50
2017-08-07T14:01:56.254Z,101190.24
2017-08-07T14:04:23.858Z,101186.14
2017-08-07T14:06:51.506Z,101184.55
2017-08-07T14:09:19.105Z,101177.80
2017-08-07T14:11:46.751Z,101170.45
2017-08-07T14:14:14.383Z,101170.08
2017-08-07T14:16:42.018Z,101166.48
2017-08-07T14:19:09.611Z,101164.38
2017-08-07T14:21:37.207Z,101160.48
2017-08-07T14:24:04.850Z,101155.09
2017-08-07T14:26:32.435Z,101145.52
2017-08-07T14:29:00.065Z,101144.80
2017-08-07T14:31:27.684Z,101136.01
2017-08-07T14:33:55.327Z,101141.34
2017-08-07T14:36:22.939Z,101143.26
2017-08-07T14:38:50.596Z,101136.48
2017-08-07T14:41:18.194Z,101137.11
2017-08-07T14:43:45.841Z,101131.98
2017-08-07T14:46:13.437Z,101126.15
2017-08-07T14:48:41.107Z,101128.66
2017-08-07T14:51:08.711Z,101125.19
2017-08-07T14:53:36.355Z,101132.59
2017-08-07T14:56:03.937Z,101128.95
2017-08-07T14:58:31.578Z,101121.78
2017-08-07T15:00:59.186Z,101115.03
2017-08-07T15:03:26.815Z,101107.25
2017-08-07T15:05:54.413Z,101111.84
2017-08-07T15:08:22.070Z,101113.20
2017-08-07T15:10:49.668Z,101110.53
2017-08-07T15:13:17.322Z,101105.88
2017-08-07T15:15:44.930Z,101103.43
2017-08-07T15:18:12.564Z,101097.72
2017-08-07T15:20:40.174Z,101090.97
2017-08-07T15:23:07.803Z,101095.45
2017-08-07T15:25:35.424Z,101091.02
2017-08-07T15:28:03.059Z,101089.98
2017-08-07T15:30:30.649Z,101093.97
2017-08-07T15:32:58.272Z,101082.84
2017-08-07T15:35:25.995Z,101083.68
2017-08-07T15:37:53.641Z,101077.98
2017-08-07T15:40:21.235Z,101081.28
2017-08-07T15:42:48.889Z,101079.09
2017-08-07T15:45:16.498Z,101070.14
2017-08-07T15:47:44.129Z,101068.06
2017-08-07T15:50:11.731Z,101067.87
2017-08-07T15:52:39.356Z,101061.02
2017-08-07T15:55:06.963Z,101061.80
2017-08-07T15:57:34.598Z,101061.17
2017-08-07T16:00:02.211Z,101067.22
2017-08-07T16:02:29.839Z,101058.34
2017-08-07T16:04:57.438Z,101064.98
2017-08-07T16:07:25.077Z,101062.34
2017-08-07T16:09:52.685Z,101069.44
2017-08-07T16:12:20.330Z,101068.78
2017-08-07T16:14:47.935Z,101056.81
2017-08-07T16:17:15.585Z,101057.73
2017-08-07T16:19:43.189Z,101056.41
2017-08-07T16:22:10.776Z,101054.75
2017-08-07T16:24:38.418Z,101049.95
2017-08-07T16:27:06.018Z,101046.67
2017-08-07T16:29:33.638Z,101040.30
2017-08-07T16:32:01.241Z,101041.84
2017-08-07T16:34:28.852Z,101041.73
2017-08-07T16:36:56.454Z,101036.95
2017-08-07T16:39:24.070Z,101033.77
2017-08-07T16:41:51.660Z,101035.36
2017-08-07T16:44:19.358Z,101040.63
2017-08-07T16:46:46.954Z,101038.72
2017-08-07T16:49:14.570Z,101031.55
2017-08-07T16:51:42.181Z,101029.23
2017-08-07T16:54:09.809Z,101023.03
2017-08-07T16:56:37.411Z,101035.69
2017-08-07T16:59:05.051Z,101025.20
2017-08-07T17:01:32.663Z,101021.68
2017-08-07T17:04:00.322Z,101017.72
2017-08-07T17:06:27.913Z,101021.22
2017-08-07T17:08:55.540Z,101014.56
2017-08-07T17:11:23.231Z,101013.42
2017-08-07T17:13:50.857Z,101006.36
2017-08-07T17:16:18.451Z,101009.23
2017-08-07T17:18:46.092Z,101001.63
2017-08-07T17:21:13.698Z,101012.61
2017-08-07T17:23:41.332Z,101009.30
2017-08-07T17:26:08.939Z,100997.28
2017-08-07T17:28:36.592Z,100995.48
2017-08-07T17:31:04.210Z,100999.36
2017-08-07T17:33:31.794Z,100995.48
2017-08-07T17:35:59.476Z,100989.05
2017-08-07T17:38:27.083Z,100988.22
2017-08-07T17:40:54.717Z,100988.68
2017-08-07T17:43:22.322Z,100984.33
2017-08-07T17:45:49.942Z,100977.32
2017-08-07T17:48:17.534Z,100980.95
2017-08-07T17:50:45.210Z,100969.08
2017-08-07T17:53:12.832Z,100972.02
2017-08-07T17:55:40.482Z,100968.33
2017-08-07T17:58:08.079Z,100959.65
2017-08-07T18:00:35.738Z,100956.30
2017-08-07T18:03:03.343Z,100955.77
2017-08-07T18:05:30.965Z,100947.91
2017-08-07T18:07:58.565Z,100949.88
2017-08-07T18:10:26.210Z,100941.27
2017-08-07T18:12:53.819Z,100945.94
2017-08-07T18:15:21.454Z,100940.86
2017-08-07T18:17:49.058Z,100937.91
2017-08-07T18:20:16.742Z,100935.59
2017-08-07T18:22:44.378Z,100937.97
2017-08-07T18:25:12.010Z,100932.42
2017-08-07T18:27:39.604Z,100928.92
2017-08-07T18:30:07.210Z,100930.33
2017-08-07T18:32:34.838Z,100930.73
2017-08-07T18:35:02.435Z,100932.70
2017-08-07T18:37:30.071Z,100927.99
2017-08-07T18:39:57.674Z,100918.53
2017-08-07T18:42:25.306Z,100918.95
2017-08-07T18:44:52.914Z,100916.44
2017-08-07T18:47:20.556Z,100916.17
2017-08-07T18:49:48.151Z,100933.16
2017-08-07T18:52:15.912Z,100936.34
2017-08-07T18:54:43.533Z,100940.97
2017-08-07T18:57:11.165Z,100943.39
2017-08-07T18:59:38.841Z,100939.02
2017-08-07T19:02:06.495Z,100939.81
2017-08-07T19:04:34.099Z,100946.63
2017-08-07T19:07:01.791Z,100950.84
2017-08-07T19:09:29.390Z,100952.23
2017-08-07T19:11:57.099Z,100957.03
2017-08-07T19:14:24.695Z,100955.70
2017-08-07T19:16:52.361Z,100959.77
2017-08-07T19:19:19.965Z,100963.49
2017-08-07T19:21:47.610Z,100962.56
2017-08-07T19:24:15.223Z,100965.77
2017-08-07T19:26:42.856Z,100962.96
2017-08-07T19:29:10.471Z,100959.76
2017-08-07T19:31:38.093Z,100950.57
2017-08-07T19:34:05.735Z,100950.91
2017-08-07T19:36:33.363Z,100950.84
2017-08-07T19:39:00.994Z,100958.50
2017-08-07T19:41:28.648Z,100956.86
2017-08-07T19:43:56.236Z,100955.36
2017-08-07T19:46:23.850Z,100959.91
2017-08-07T19:48:51.462Z,100960.08
2017-08-07T19:51:19.136Z,100957.89
2017-08-07T19:53:46.735Z,100961.83
2017-08-07T19:56:14.366Z,100949.48
2017-08-07T19:58:41.959Z,100948.94
2017-08-07T20:01:09.596Z,100950.14
2017-08-07T20:03:37.197Z,100945.36
2017-08-07T20:06:04.811Z,100946.43
2017-08-07T20:08:32.403Z,100949.00
2017-08-07T20:11:00.007Z,100947.55
2017-08-07T20:13:27.647Z,100943.18
2017-08-07T20:15:55.260Z,100945.95
2017-08-07T20:18:22.887Z,100939.42
2017-08-07T20:20:50.514Z,100936.04
2017-08-07T20:23:18.163Z,100932.40
2017-08-07T20:25:45.783Z,100926.84
2017-08-07T20:28:13.434Z,100926.21
2017-08-07T20:30:41.080Z,100919.60
2017-08-07T20:33:08.735Z,100919.41
2017-08-07T20:35:36.322Z,100926.45
2017-08-07T20:38:03.968Z,100925.94
2017-08-07T20:40:31.583Z,100928.18
2017-08-07T20:42:59.215Z,100932.22
2017-08-07T20:45:26.882Z,100932.50
2017-08-07T20:47:54.527Z,100932.63
2017-08-07T20:50:22.166Z,100940.59
2017-08-07T20:52:49.841Z,100944.38
2017-08-07T20:55:17.471Z,100942.59
2017-08-07T20:57:45.070Z,100941.86
2017-08-07T21:00:12.730Z,100940.76
2017-08-07T21:02:40.335Z,100935.78
2017-08-07T21:05:08.080Z,100928.81
2017-08-07T21:07:35.677Z,100930.12
2017-08-07T21:10:03.319Z,100933.44
2017-08-07T21:12:30.933Z,100936.02
2017-08-07T21:14:58.559Z,100936.97
2017-08-07T21:17:26.253Z,100932.48
2017-08-07T21:19:53.869Z,100927.72
2017-08-07T21:22:21.482Z,100923.54
2017-08-07T21:24:49.119Z,100926.24
2017-08-07T21:27:16.734Z,100928.84
2017-08-07T21:29:44.382Z,100923.00
2017-08-07T21:32:12.004Z,100921.37
2017-08-07T21:34:39.750Z,100912.25
2017-08-07T21:37:07.363Z,100917.28
2017-08-07T21:39:35.002Z,100912.88
2017-08-07T21:42:02.633Z,100918.16
2017-08-07T21:44:30.378Z,100909.50
2017-08-07T21:46:57.991Z,100916.09
2017-08-07T21:49:25.586Z,100913.94
2017-08-07T21:51:53.240Z,100904.11
2017-08-07T21:54:20.834Z,100904.41
2017-08-07T21:56:48.642Z,100904.58
2017-08-07T21:59:16.242Z,100899.73
2017-08-07T22:01:43.894Z,100897.84
2017-08-07T22:04:11.493Z,100890.45
2017-08-07T22:06:39.236Z,100894.94
2017-08-07T22:09:06.831Z,100892.15
2017-08-07T22:11:34.426Z,100898.31
2017-08-07T22:14:02.077Z,100890.87
2017-08-07T22:16:29.680Z,100894.94
2017-08-07T22:18:57.349Z,100894.39
2017-08-07T22:21:24.935Z,100894.73
2017-08-07T22:23:52.606Z,100890.55
2017-08-07T22:26:20.219Z,100895.16
2017-08-07T22:28:47.867Z,100893.52
2017-08-07T22:31:15.480Z,100901.25
2017-08-07T22:33:43.110Z,100901.48
2017-08-07T22:36:10.771Z,100903.03
2017-08-07T22:38:38.405Z,100894.98
2017-08-07T22:41:06.038Z,100887.95
2017-08-07T22:43:33.679Z,100894.41
2017-08-07T22:46:01.266Z,100892.45
2017-08-07T22:48:28.915Z,100889.04
2017-08-07T22:50:56.523Z,100881.33
2017-08-07T22:53:24.287Z,100879.05
2017-08-07T22:55:51.922Z,100874.20
2017-08-07T22:58:19.526Z,100885.12
2017-08-07T23:00:47.172Z,100877.15
2017-08-07T23:03:14.764Z,100875.13
2017-08-07T23:05:42.401Z,100867.28
2017-08-07T23:08:09.995Z,100861.73
2017-08-07T23:10:37.655Z,100863.27
2017-08-07T23:13:05.238Z,100863.31
2017-08-07T23:15:32.882Z,100855.11
2017-08-07T23:18:00.486Z,100851.39
2017-08-07T23:20:28.227Z,100851.98
2017-08-07T23:22:56.045Z,100847.58
2017-08-07T23:25:23.642Z,100842.98
2017-08-07T23:27:51.358Z,100831.34
2017-08-07T23:30:18.967Z,100824.00
2017-08-07T23:32:46.590Z,100830.33
2017-08-07T23:35:14.181Z,100829.87
2017-08-07T23:37:41.820Z,100825.22
2017-08-07T23:40:09.414Z,100827.09
2017-08-07T23:42:37.045Z,100826.06
2017-08-07T23:45:04.640Z,100825.61
2017-08-07T23:47:32.462Z,100813.47
2017-08-07T23:50:00.055Z,100824.08
2017-08-07T23:52:27.646Z,100818.54
2017-08-07T23:54:55.278Z,100816.77
2017-08-07T23:57:22.867Z,100819.81
2017-08-07T23:59:50.498Z,100817.94
